sensor_id;sensor_type;location;lat;lon;timestamp;P1;durP1;ratioP1;P2;durP2;ratioP2
22219;SDS011;11279;48.364;10.904;2022-11-18T00:00:33;2.00;;;1.20;;
22219;SDS011;11279;48.364;10.904;2022-11-18T00:01:34;1.40;;;1.00;;
22219;SDS011;11279;48.364;10.904;2022-11-18T00:02:34;3.37;;;1.10;;
22219;SDS011;11279;48.364;10.904;2022-11-18T00:03:35;3.03;;;1.10;;
22219;SDS011;11279;48.364;10.904;2022-11-18T00:04:36;3.60;;;1.10;;
22219;SDS011;11279;48.364;10.904;2022-11-18T00:05:36;2.63;;;0.83;;
22219;SDS011;11279;48.364;10.904;2022-11-18T00:06:37;3.10;;;1.20;;
22219;SDS011;11279;48.364;10.904;2022-11-18T00:07:37;1.50;;;1.00;;
22219;SDS011;11279;48.364;10.904;2022-11-18T00:08:38;1.67;;;0.97;;
22219;SDS011;11279;48.364;10.904;2022-11-18T00:09:38;5.73;;;1.17;;
22219;SDS011;11279;48.364;10.904;2022-11-18T00:10:38;3.23;;;1.20;;
22219;SDS011;11279;48.364;10.904;2022-11-18T00:11:39;3.47;;;1.10;;
22219;SDS011;11279;48.364;10.904;2022-11-18T00:12:58;1.77;;;1.23;;
22219;SDS011;11279;48.364;10.904;2022-11-18T00:14:21;1.73;;;1.23;;
22219;SDS011;11279;48.364;10.904;2022-11-18T00:15:23;2.47;;;1.40;;
22219;SDS011;11279;48.364;10.904;2022-11-18T00:16:23;2.73;;;1.30;;
22219;SDS011;11279;48.364;10.904;2022-11-18T00:17:24;6.40;;;1.67;;
22219;SDS011;11279;48.364;10.904;2022-11-18T00:18:25;1.70;;;1.20;;
22219;SDS011;11279;48.364;10.904;2022-11-18T00:19:27;1.73;;;1.40;;
22219;SDS011;11279;48.364;10.904;2022-11-18T00:20:29;1.88;;;1.45;;
22219;SDS011;11279;48.364;10.904;2022-11-18T00:21:29;2.63;;;1.67;;
22219;SDS011;11279;48.364;10.904;2022-11-18T00:22:30;1.63;;;1.30;;
22219;SDS011;11279;48.364;10.904;2022-11-18T00:23:30;3.03;;;1.60;;
22219;SDS011;11279;48.364;10.904;2022-11-18T00:24:31;1.57;;;1.27;;
22219;SDS011;11279;48.364;10.904;2022-11-18T00:25:32;1.88;;;1.38;;
22219;SDS011;11279;48.364;10.904;2022-11-18T00:26:33;1.83;;;1.30;;
22219;SDS011;11279;48.364;10.904;2022-11-18T00:27:35;5.05;;;1.50;;
22219;SDS011;11279;48.364;10.904;2022-11-18T00:28:35;1.87;;;1.40;;
22219;SDS011;11279;48.364;10.904;2022-11-18T00:29:36;2.67;;;1.40;;
22219;SDS011;11279;48.364;10.904;2022-11-18T00:30:37;2.80;;;1.57;;
22219;SDS011;11279;48.364;10.904;2022-11-18T00:31:37;1.50;;;1.40;;
22219;SDS011;11279;48.364;10.904;2022-11-18T00:32:38;2.87;;;1.60;;
22219;SDS011;11279;48.364;10.904;2022-11-18T00:33:38;3.13;;;1.20;;
22219;SDS011;11279;48.364;10.904;2022-11-18T00:34:39;2.13;;;1.07;;
22219;SDS011;11279;48.364;10.904;2022-11-18T00:35:41;3.80;;;1.25;;
22219;SDS011;11279;48.364;10.904;2022-11-18T00:36:42;3.63;;;1.40;;
22219;SDS011;11279;48.364;10.904;2022-11-18T00:37:43;3.00;;;1.13;;
22219;SDS011;11279;48.364;10.904;2022-11-18T00:38:43;2.30;;;1.30;;
22219;SDS011;11279;48.364;10.904;2022-11-18T00:39:44;2.23;;;1.20;;
22219;SDS011;11279;48.364;10.904;2022-11-18T00:40:44;3.43;;;1.40;;
22219;SDS011;11279;48.364;10.904;2022-11-18T00:41:45;1.93;;;1.30;;
22219;SDS011;11279;48.364;10.904;2022-11-18T00:43:04;2.78;;;1.23;;
22219;SDS011;11279;48.364;10.904;2022-11-18T00:44:05;1.87;;;1.47;;
22219;SDS011;11279;48.364;10.904;2022-11-18T00:45:05;2.83;;;1.20;;
22219;SDS011;11279;48.364;10.904;2022-11-18T00:46:07;1.63;;;1.30;;
22219;SDS011;11279;48.364;10.904;2022-11-18T00:47:08;2.45;;;1.15;;
22219;SDS011;11279;48.364;10.904;2022-11-18T00:48:09;3.80;;;1.60;;
22219;SDS011;11279;48.364;10.904;2022-11-18T00:49:09;3.13;;;1.40;;
22219;SDS011;11279;48.364;10.904;2022-11-18T00:50:10;5.50;;;1.37;;
22219;SDS011;11279;48.364;10.904;2022-11-18T00:51:12;2.57;;;1.10;;
22219;SDS011;11279;48.364;10.904;2022-11-18T00:52:14;2.05;;;1.20;;
22219;SDS011;11279;48.364;10.904;2022-11-18T00:53:15;3.50;;;1.60;;
22219;SDS011;11279;48.364;10.904;2022-11-18T00:54:16;2.42;;;1.38;;
22219;SDS011;11279;48.364;10.904;2022-11-18T00:55:16;2.33;;;1.40;;
22219;SDS011;11279;48.364;10.904;2022-11-18T00:56:17;4.70;;;1.30;;
22219;SDS011;11279;48.364;10.904;2022-11-18T00:57:17;1.60;;;1.10;;
22219;SDS011;11279;48.364;10.904;2022-11-18T00:58:18;3.27;;;1.33;;
22219;SDS011;11279;48.364;10.904;2022-11-18T00:59:18;3.50;;;1.13;;
22219;SDS011;11279;48.364;10.904;2022-11-18T01:00:19;3.33;;;1.27;;
22219;SDS011;11279;48.364;10.904;2022-11-18T01:01:19;2.80;;;1.40;;
22219;SDS011;11279;48.364;10.904;2022-11-18T01:02:20;4.00;;;1.40;;
22219;SDS011;11279;48.364;10.904;2022-11-18T01:03:20;2.50;;;1.20;;
22219;SDS011;11279;48.364;10.904;2022-11-18T01:04:21;2.63;;;1.40;;
22219;SDS011;11279;48.364;10.904;2022-11-18T01:05:22;3.70;;;1.13;;
22219;SDS011;11279;48.364;10.904;2022-11-18T01:06:22;2.30;;;1.27;;
22219;SDS011;11279;48.364;10.904;2022-11-18T01:07:23;3.00;;;1.50;;
22219;SDS011;11279;48.364;10.904;2022-11-18T01:08:24;2.50;;;1.40;;
22219;SDS011;11279;48.364;10.904;2022-11-18T01:09:25;6.00;;;1.57;;
22219;SDS011;11279;48.364;10.904;2022-11-18T01:10:25;3.10;;;1.57;;
22219;SDS011;11279;48.364;10.904;2022-11-18T01:11:26;1.90;;;1.23;;
22219;SDS011;11279;48.364;10.904;2022-11-18T01:12:45;3.92;;;1.58;;
22219;SDS011;11279;48.364;10.904;2022-11-18T01:14:03;1.67;;;1.20;;
22219;SDS011;11279;48.364;10.904;2022-11-18T01:15:04;2.70;;;1.20;;
22219;SDS011;11279;48.364;10.904;2022-11-18T01:16:05;2.40;;;1.23;;
22219;SDS011;11279;48.364;10.904;2022-11-18T01:17:05;2.40;;;1.60;;
22219;SDS011;11279;48.364;10.904;2022-11-18T01:18:06;2.83;;;1.40;;
22219;SDS011;11279;48.364;10.904;2022-11-18T01:19:06;3.23;;;1.47;;
22219;SDS011;11279;48.364;10.904;2022-11-18T01:20:07;2.50;;;1.50;;
22219;SDS011;11279;48.364;10.904;2022-11-18T01:21:08;4.00;;;1.30;;
22219;SDS011;11279;48.364;10.904;2022-11-18T01:22:09;2.37;;;1.33;;
22219;SDS011;11279;48.364;10.904;2022-11-18T01:23:09;2.23;;;1.50;;
22219;SDS011;11279;48.364;10.904;2022-11-18T01:24:09;2.13;;;1.33;;
22219;SDS011;11279;48.364;10.904;2022-11-18T01:25:10;4.17;;;1.33;;
22219;SDS011;11279;48.364;10.904;2022-11-18T01:26:11;2.93;;;1.30;;
22219;SDS011;11279;48.364;10.904;2022-11-18T01:27:13;2.65;;;1.48;;
22219;SDS011;11279;48.364;10.904;2022-11-18T01:28:13;2.97;;;1.40;;
22219;SDS011;11279;48.364;10.904;2022-11-18T01:29:16;3.15;;;1.30;;
22219;SDS011;11279;48.364;10.904;2022-11-18T01:30:16;2.73;;;1.43;;
22219;SDS011;11279;48.364;10.904;2022-11-18T01:31:17;2.40;;;1.50;;
22219;SDS011;11279;48.364;10.904;2022-11-18T01:32:18;3.28;;;1.60;;
22219;SDS011;11279;48.364;10.904;2022-11-18T01:33:18;2.07;;;1.60;;
22219;SDS011;11279;48.364;10.904;2022-11-18T01:34:19;2.73;;;1.50;;
22219;SDS011;11279;48.364;10.904;2022-11-18T01:35:19;4.10;;;1.70;;
22219;SDS011;11279;48.364;10.904;2022-11-18T01:36:20;1.83;;;1.33;;
22219;SDS011;11279;48.364;10.904;2022-11-18T01:37:24;3.53;;;1.80;;
22219;SDS011;11279;48.364;10.904;2022-11-18T01:38:25;3.07;;;1.57;;
22219;SDS011;11279;48.364;10.904;2022-11-18T01:39:27;2.63;;;1.20;;
22219;SDS011;11279;48.364;10.904;2022-11-18T01:40:28;2.25;;;1.50;;
22219;SDS011;11279;48.364;10.904;2022-11-18T01:41:29;3.30;;;1.50;;
22219;SDS011;11279;48.364;10.904;2022-11-18T01:42:29;3.47;;;1.60;;
22219;SDS011;11279;48.364;10.904;2022-11-18T01:43:50;2.47;;;1.60;;
22219;SDS011;11279;48.364;10.904;2022-11-18T01:45:09;2.35;;;1.40;;
22219;SDS011;11279;48.364;10.904;2022-11-18T01:46:19;5.22;;;1.63;;
22219;SDS011;11279;48.364;10.904;2022-11-18T01:47:21;3.85;;;1.60;;
22219;SDS011;11279;48.364;10.904;2022-11-18T01:48:27;3.03;;;1.60;;
22219;SDS011;11279;48.364;10.904;2022-11-18T01:49:29;3.95;;;2.00;;
22219;SDS011;11279;48.364;10.904;2022-11-18T01:50:30;6.27;;;1.63;;
22219;SDS011;11279;48.364;10.904;2022-11-18T01:51:32;3.45;;;1.70;;
22219;SDS011;11279;48.364;10.904;2022-11-18T01:52:34;2.58;;;1.70;;
22219;SDS011;11279;48.364;10.904;2022-11-18T01:53:36;4.17;;;1.80;;
22219;SDS011;11279;48.364;10.904;2022-11-18T01:54:40;5.35;;;1.98;;
22219;SDS011;11279;48.364;10.904;2022-11-18T01:55:44;3.28;;;1.70;;
22219;SDS011;11279;48.364;10.904;2022-11-18T01:56:49;4.47;;;1.92;;
22219;SDS011;11279;48.364;10.904;2022-11-18T01:57:53;2.85;;;1.92;;
22219;SDS011;11279;48.364;10.904;2022-11-18T01:58:58;4.20;;;2.17;;
22219;SDS011;11279;48.364;10.904;2022-11-18T02:00:03;2.40;;;1.60;;
22219;SDS011;11279;48.364;10.904;2022-11-18T02:01:05;5.00;;;1.95;;
22219;SDS011;11279;48.364;10.904;2022-11-18T02:02:07;2.50;;;1.67;;
22219;SDS011;11279;48.364;10.904;2022-11-18T02:03:10;4.18;;;1.70;;
22219;SDS011;11279;48.364;10.904;2022-11-18T02:04:11;3.37;;;1.90;;
22219;SDS011;11279;48.364;10.904;2022-11-18T02:05:13;2.03;;;1.70;;
22219;SDS011;11279;48.364;10.904;2022-11-18T02:06:13;3.97;;;2.00;;
22219;SDS011;11279;48.364;10.904;2022-11-18T02:07:14;7.68;;;2.17;;
22219;SDS011;11279;48.364;10.904;2022-11-18T02:08:16;3.00;;;1.85;;
22219;SDS011;11279;48.364;10.904;2022-11-18T02:09:17;2.28;;;1.90;;
22219;SDS011;11279;48.364;10.904;2022-11-18T02:10:19;4.07;;;2.20;;
22219;SDS011;11279;48.364;10.904;2022-11-18T02:11:21;3.45;;;2.17;;
22219;SDS011;11279;48.364;10.904;2022-11-18T02:12:40;4.53;;;2.20;;
22219;SDS011;11279;48.364;10.904;2022-11-18T02:13:40;4.13;;;2.20;;
22219;SDS011;11279;48.364;10.904;2022-11-18T02:14:42;3.83;;;2.20;;
22219;SDS011;11279;48.364;10.904;2022-11-18T02:15:49;3.83;;;1.85;;
22219;SDS011;11279;48.364;10.904;2022-11-18T02:18:27;3.58;;;2.20;;
22219;SDS011;11279;48.364;10.904;2022-11-18T02:20:43;5.07;;;2.13;;
22219;SDS011;11279;48.364;10.904;2022-11-18T02:21:52;5.55;;;2.53;;
22219;SDS011;11279;48.364;10.904;2022-11-18T02:29:09;2.40;;;1.77;;
22219;SDS011;11279;48.364;10.904;2022-11-18T02:30:12;2.72;;;1.60;;
22219;SDS011;11279;48.364;10.904;2022-11-18T02:31:31;2.47;;;1.67;;
22219;SDS011;11279;48.364;10.904;2022-11-18T02:32:36;4.85;;;2.00;;
22219;SDS011;11279;48.364;10.904;2022-11-18T02:35:40;2.83;;;1.90;;
22219;SDS011;11279;48.364;10.904;2022-11-18T02:36:45;3.40;;;1.55;;
22219;SDS011;11279;48.364;10.904;2022-11-18T02:37:52;2.97;;;2.15;;
22219;SDS011;11279;48.364;10.904;2022-11-18T02:38:56;4.65;;;1.90;;
22219;SDS011;11279;48.364;10.904;2022-11-18T02:41:10;4.07;;;1.80;;
22219;SDS011;11279;48.364;10.904;2022-11-18T02:42:14;5.22;;;2.33;;
22219;SDS011;11279;48.364;10.904;2022-11-18T02:43:28;3.03;;;1.98;;
22219;SDS011;11279;48.364;10.904;2022-11-18T02:44:30;5.10;;;2.13;;
22219;SDS011;11279;48.364;10.904;2022-11-18T02:45:32;4.60;;;2.30;;
22219;SDS011;11279;48.364;10.904;2022-11-18T02:46:33;5.70;;;1.90;;
22219;SDS011;11279;48.364;10.904;2022-11-18T02:47:35;4.07;;;2.15;;
22219;SDS011;11279;48.364;10.904;2022-11-18T02:48:38;6.18;;;1.95;;
22219;SDS011;11279;48.364;10.904;2022-11-18T02:49:41;3.22;;;1.88;;
22219;SDS011;11279;48.364;10.904;2022-11-18T02:50:46;3.85;;;2.00;;
22219;SDS011;11279;48.364;10.904;2022-11-18T02:51:48;5.70;;;2.03;;
22219;SDS011;11279;48.364;10.904;2022-11-18T02:52:52;3.60;;;2.30;;
22219;SDS011;11279;48.364;10.904;2022-11-18T02:53:55;2.15;;;1.77;;
22219;SDS011;11279;48.364;10.904;2022-11-18T02:55:00;3.03;;;1.48;;
22219;SDS011;11279;48.364;10.904;2022-11-18T02:56:02;4.22;;;1.85;;
22219;SDS011;11279;48.364;10.904;2022-11-18T02:57:03;3.40;;;1.63;;
22219;SDS011;11279;48.364;10.904;2022-11-18T02:58:04;2.53;;;1.52;;
22219;SDS011;11279;48.364;10.904;2022-11-18T02:59:05;3.58;;;1.38;;
22219;SDS011;11279;48.364;10.904;2022-11-18T03:00:06;4.17;;;1.70;;
22219;SDS011;11279;48.364;10.904;2022-11-18T03:01:06;2.50;;;1.60;;
22219;SDS011;11279;48.364;10.904;2022-11-18T03:02:16;2.60;;;1.65;;
22219;SDS011;11279;48.364;10.904;2022-11-18T03:04:28;2.85;;;1.80;;
22219;SDS011;11279;48.364;10.904;2022-11-18T03:05:39;1.67;;;1.20;;
22219;SDS011;11279;48.364;10.904;2022-11-18T03:06:44;3.05;;;1.40;;
22219;SDS011;11279;48.364;10.904;2022-11-18T03:08:02;3.38;;;1.50;;
22219;SDS011;11279;48.364;10.904;2022-11-18T03:10:17;3.38;;;1.30;;
22219;SDS011;11279;48.364;10.904;2022-11-18T03:11:19;2.75;;;1.17;;
22219;SDS011;11279;48.364;10.904;2022-11-18T03:13:34;1.52;;;1.30;;
22219;SDS011;11279;48.364;10.904;2022-11-18T03:16:00;3.38;;;1.40;;
22219;SDS011;11279;48.364;10.904;2022-11-18T03:21:09;2.67;;;1.30;;
22219;SDS011;11279;48.364;10.904;2022-11-18T03:23:26;4.05;;;1.25;;
22219;SDS011;11279;48.364;10.904;2022-11-18T03:24:34;2.22;;;1.50;;
22219;SDS011;11279;48.364;10.904;2022-11-18T03:25:49;4.55;;;1.70;;
22219;SDS011;11279;48.364;10.904;2022-11-18T03:26:53;2.72;;;1.23;;
22219;SDS011;11279;48.364;10.904;2022-11-18T03:28:08;3.15;;;1.60;;
22219;SDS011;11279;48.364;10.904;2022-11-18T03:30:18;2.58;;;1.35;;
22219;SDS011;11279;48.364;10.904;2022-11-18T03:31:22;2.92;;;1.45;;
22219;SDS011;11279;48.364;10.904;2022-11-18T03:32:26;2.85;;;1.40;;
22219;SDS011;11279;48.364;10.904;2022-11-18T03:33:30;2.03;;;1.23;;
22219;SDS011;11279;48.364;10.904;2022-11-18T03:34:35;1.88;;;1.25;;
22219;SDS011;11279;48.364;10.904;2022-11-18T03:35:38;2.28;;;1.25;;
22219;SDS011;11279;48.364;10.904;2022-11-18T03:36:41;5.03;;;1.27;;
22219;SDS011;11279;48.364;10.904;2022-11-18T03:37:45;2.50;;;1.23;;
22219;SDS011;11279;48.364;10.904;2022-11-18T03:38:47;1.60;;;1.08;;
22219;SDS011;11279;48.364;10.904;2022-11-18T03:39:51;2.40;;;1.33;;
22219;SDS011;11279;48.364;10.904;2022-11-18T03:40:54;2.05;;;1.20;;
22219;SDS011;11279;48.364;10.904;2022-11-18T03:42:08;2.83;;;1.38;;
22219;SDS011;11279;48.364;10.904;2022-11-18T03:43:12;2.50;;;1.30;;
22219;SDS011;11279;48.364;10.904;2022-11-18T03:44:16;1.88;;;1.17;;
22219;SDS011;11279;48.364;10.904;2022-11-18T03:45:21;1.85;;;1.15;;
22219;SDS011;11279;48.364;10.904;2022-11-18T03:46:35;1.83;;;1.17;;
22219;SDS011;11279;48.364;10.904;2022-11-18T03:47:40;3.65;;;1.33;;
22219;SDS011;11279;48.364;10.904;2022-11-18T03:48:43;2.22;;;1.20;;
22219;SDS011;11279;48.364;10.904;2022-11-18T03:49:52;1.13;;;1.02;;
22219;SDS011;11279;48.364;10.904;2022-11-18T03:52:06;2.35;;;1.20;;
22219;SDS011;11279;48.364;10.904;2022-11-18T03:53:10;1.50;;;1.08;;
22219;SDS011;11279;48.364;10.904;2022-11-18T03:54:13;2.43;;;1.03;;
22219;SDS011;11279;48.364;10.904;2022-11-18T03:55:17;1.00;;;0.88;;
22219;SDS011;11279;48.364;10.904;2022-11-18T03:56:26;2.60;;;1.00;;
22219;SDS011;11279;48.364;10.904;2022-11-18T03:57:31;2.83;;;1.05;;
22219;SDS011;11279;48.364;10.904;2022-11-18T03:58:42;2.15;;;0.88;;
22219;SDS011;11279;48.364;10.904;2022-11-18T03:59:50;1.80;;;1.10;;
22219;SDS011;11279;48.364;10.904;2022-11-18T04:01:14;3.47;;;1.10;;
22219;SDS011;11279;48.364;10.904;2022-11-18T04:02:22;1.25;;;0.80;;
22219;SDS011;11279;48.364;10.904;2022-11-18T04:03:23;1.42;;;0.80;;
22219;SDS011;11279;48.364;10.904;2022-11-18T04:04:25;1.52;;;0.90;;
22219;SDS011;11279;48.364;10.904;2022-11-18T04:05:26;1.92;;;1.00;;
22219;SDS011;11279;48.364;10.904;2022-11-18T04:06:33;1.60;;;1.00;;
22219;SDS011;11279;48.364;10.904;2022-11-18T04:07:57;1.20;;;0.95;;
22219;SDS011;11279;48.364;10.904;2022-11-18T04:08:59;0.90;;;0.90;;
22219;SDS011;11279;48.364;10.904;2022-11-18T04:11:14;3.72;;;1.00;;
22219;SDS011;11279;48.364;10.904;2022-11-18T04:12:47;3.13;;;0.90;;
22219;SDS011;11279;48.364;10.904;2022-11-18T04:13:51;3.63;;;1.23;;
22219;SDS011;11279;48.364;10.904;2022-11-18T04:14:52;1.00;;;0.80;;
22219;SDS011;11279;48.364;10.904;2022-11-18T04:15:54;1.23;;;0.85;;
22219;SDS011;11279;48.364;10.904;2022-11-18T04:16:54;1.73;;;0.70;;
22219;SDS011;11279;48.364;10.904;2022-11-18T04:17:55;2.80;;;0.80;;
22219;SDS011;11279;48.364;10.904;2022-11-18T04:18:55;1.10;;;0.70;;
22219;SDS011;11279;48.364;10.904;2022-11-18T04:19:56;1.60;;;0.80;;
22219;SDS011;11279;48.364;10.904;2022-11-18T04:20:56;1.73;;;0.80;;
22219;SDS011;11279;48.364;10.904;2022-11-18T04:21:57;1.23;;;0.70;;
22219;SDS011;11279;48.364;10.904;2022-11-18T04:22:57;1.27;;;0.70;;
22219;SDS011;11279;48.364;10.904;2022-11-18T04:23:58;1.80;;;0.83;;
22219;SDS011;11279;48.364;10.904;2022-11-18T04:24:58;0.80;;;0.60;;
22219;SDS011;11279;48.364;10.904;2022-11-18T04:25:58;1.20;;;0.70;;
22219;SDS011;11279;48.364;10.904;2022-11-18T04:26:59;1.23;;;0.60;;
22219;SDS011;11279;48.364;10.904;2022-11-18T04:28:01;1.25;;;0.70;;
22219;SDS011;11279;48.364;10.904;2022-11-18T04:29:02;0.68;;;0.68;;
22219;SDS011;11279;48.364;10.904;2022-11-18T04:30:03;1.53;;;0.60;;
22219;SDS011;11279;48.364;10.904;2022-11-18T04:31:05;0.60;;;0.60;;
22219;SDS011;11279;48.364;10.904;2022-11-18T04:32:05;0.57;;;0.50;;
22219;SDS011;11279;48.364;10.904;2022-11-18T04:33:06;0.57;;;0.57;;
22219;SDS011;11279;48.364;10.904;2022-11-18T04:34:06;2.00;;;0.87;;
22219;SDS011;11279;48.364;10.904;2022-11-18T04:35:07;2.43;;;0.73;;
22219;SDS011;11279;48.364;10.904;2022-11-18T04:36:08;1.03;;;0.57;;
22219;SDS011;11279;48.364;10.904;2022-11-18T04:37:08;1.90;;;0.77;;
22219;SDS011;11279;48.364;10.904;2022-11-18T04:38:09;1.23;;;0.60;;
22219;SDS011;11279;48.364;10.904;2022-11-18T04:39:09;2.47;;;0.90;;
22219;SDS011;11279;48.364;10.904;2022-11-18T04:40:10;0.90;;;0.60;;
22219;SDS011;11279;48.364;10.904;2022-11-18T04:41:10;0.60;;;0.50;;
22219;SDS011;11279;48.364;10.904;2022-11-18T04:42:11;2.23;;;0.70;;
22219;SDS011;11279;48.364;10.904;2022-11-18T04:43:11;0.50;;;0.50;;
22219;SDS011;11279;48.364;10.904;2022-11-18T04:44:12;0.77;;;0.50;;
22219;SDS011;11279;48.364;10.904;2022-11-18T04:45:12;0.53;;;0.40;;
22219;SDS011;11279;48.364;10.904;2022-11-18T04:46:13;0.70;;;0.43;;
22219;SDS011;11279;48.364;10.904;2022-11-18T04:47:13;0.70;;;0.50;;
22219;SDS011;11279;48.364;10.904;2022-11-18T04:48:13;2.80;;;0.80;;
22219;SDS011;11279;48.364;10.904;2022-11-18T04:49:15;1.73;;;1.00;;
22219;SDS011;11279;48.364;10.904;2022-11-18T04:50:15;0.67;;;0.60;;
22219;SDS011;11279;48.364;10.904;2022-11-18T04:51:16;0.77;;;0.60;;
22219;SDS011;11279;48.364;10.904;2022-11-18T04:52:16;0.53;;;0.53;;
22219;SDS011;11279;48.364;10.904;2022-11-18T04:53:17;0.40;;;0.40;;
22219;SDS011;11279;48.364;10.904;2022-11-18T04:54:18;0.40;;;0.40;;
22219;SDS011;11279;48.364;10.904;2022-11-18T04:55:19;1.65;;;0.70;;
22219;SDS011;11279;48.364;10.904;2022-11-18T04:56:19;1.03;;;0.60;;
22219;SDS011;11279;48.364;10.904;2022-11-18T04:57:20;1.53;;;0.70;;
22219;SDS011;11279;48.364;10.904;2022-11-18T04:58:20;1.77;;;0.77;;
22219;SDS011;11279;48.364;10.904;2022-11-18T04:59:22;0.50;;;0.50;;
22219;SDS011;11279;48.364;10.904;2022-11-18T05:00:23;2.78;;;0.70;;
22219;SDS011;11279;48.364;10.904;2022-11-18T05:01:24;1.70;;;0.90;;
22219;SDS011;11279;48.364;10.904;2022-11-18T05:02:24;0.50;;;0.50;;
22219;SDS011;11279;48.364;10.904;2022-11-18T05:03:25;1.70;;;0.60;;
22219;SDS011;11279;48.364;10.904;2022-11-18T05:04:26;1.30;;;0.60;;
22219;SDS011;11279;48.364;10.904;2022-11-18T05:05:32;0.73;;;0.70;;
22219;SDS011;11279;48.364;10.904;2022-11-18T05:06:33;1.33;;;0.88;;
22219;SDS011;11279;48.364;10.904;2022-11-18T05:07:34;1.20;;;0.90;;
22219;SDS011;11279;48.364;10.904;2022-11-18T05:08:34;1.80;;;0.80;;
22219;SDS011;11279;48.364;10.904;2022-11-18T05:09:35;1.23;;;0.83;;
22219;SDS011;11279;48.364;10.904;2022-11-18T05:10:36;0.50;;;0.50;;
22219;SDS011;11279;48.364;10.904;2022-11-18T05:11:37;0.90;;;0.82;;
22219;SDS011;11279;48.364;10.904;2022-11-18T05:12:57;1.38;;;0.80;;
22219;SDS011;11279;48.364;10.904;2022-11-18T05:13:57;0.80;;;0.80;;
22219;SDS011;11279;48.364;10.904;2022-11-18T05:14:58;2.13;;;0.90;;
22219;SDS011;11279;48.364;10.904;2022-11-18T05:15:59;1.83;;;1.00;;
22219;SDS011;11279;48.364;10.904;2022-11-18T05:17:00;14.15;;;1.00;;
22219;SDS011;11279;48.364;10.904;2022-11-18T05:18:02;2.63;;;0.90;;
22219;SDS011;11279;48.364;10.904;2022-11-18T05:19:03;0.80;;;0.77;;
22219;SDS011;11279;48.364;10.904;2022-11-18T05:20:04;1.02;;;0.93;;
22219;SDS011;11279;48.364;10.904;2022-11-18T05:21:05;1.60;;;0.80;;
22219;SDS011;11279;48.364;10.904;2022-11-18T05:22:06;1.17;;;1.07;;
22219;SDS011;11279;48.364;10.904;2022-11-18T05:23:06;1.93;;;1.00;;
22219;SDS011;11279;48.364;10.904;2022-11-18T05:24:07;0.50;;;0.50;;
22219;SDS011;11279;48.364;10.904;2022-11-18T05:25:08;0.97;;;0.87;;
22219;SDS011;11279;48.364;10.904;2022-11-18T05:26:09;2.00;;;0.90;;
22219;SDS011;11279;48.364;10.904;2022-11-18T05:27:11;1.92;;;0.75;;
22219;SDS011;11279;48.364;10.904;2022-11-18T05:28:11;3.08;;;1.00;;
22219;SDS011;11279;48.364;10.904;2022-11-18T05:29:12;2.20;;;0.93;;
22219;SDS011;11279;48.364;10.904;2022-11-18T05:30:12;1.43;;;0.90;;
22219;SDS011;11279;48.364;10.904;2022-11-18T05:31:14;0.80;;;0.80;;
22219;SDS011;11279;48.364;10.904;2022-11-18T05:32:15;1.23;;;0.77;;
22219;SDS011;11279;48.364;10.904;2022-11-18T05:33:15;1.33;;;0.97;;
22219;SDS011;11279;48.364;10.904;2022-11-18T05:34:16;1.67;;;0.70;;
22219;SDS011;11279;48.364;10.904;2022-11-18T05:35:16;0.97;;;0.80;;
22219;SDS011;11279;48.364;10.904;2022-11-18T05:36:18;2.37;;;0.80;;
22219;SDS011;11279;48.364;10.904;2022-11-18T05:37:19;0.80;;;0.80;;
22219;SDS011;11279;48.364;10.904;2022-11-18T05:38:19;0.97;;;0.90;;
22219;SDS011;11279;48.364;10.904;2022-11-18T05:39:19;1.17;;;0.90;;
22219;SDS011;11279;48.364;10.904;2022-11-18T05:40:20;2.57;;;0.70;;
22219;SDS011;11279;48.364;10.904;2022-11-18T05:41:20;1.03;;;0.97;;
22219;SDS011;11279;48.364;10.904;2022-11-18T05:42:44;1.50;;;0.60;;
22219;SDS011;11279;48.364;10.904;2022-11-18T05:44:03;0.70;;;0.70;;
22219;SDS011;11279;48.364;10.904;2022-11-18T05:45:04;0.80;;;0.70;;
22219;SDS011;11279;48.364;10.904;2022-11-18T05:46:05;0.87;;;0.70;;
22219;SDS011;11279;48.364;10.904;2022-11-18T05:47:05;0.90;;;0.70;;
22219;SDS011;11279;48.364;10.904;2022-11-18T05:48:06;0.80;;;0.80;;
22219;SDS011;11279;48.364;10.904;2022-11-18T05:49:06;0.63;;;0.63;;
22219;SDS011;11279;48.364;10.904;2022-11-18T05:50:07;1.03;;;0.80;;
22219;SDS011;11279;48.364;10.904;2022-11-18T05:51:08;0.60;;;0.50;;
22219;SDS011;11279;48.364;10.904;2022-11-18T05:52:08;1.80;;;1.00;;
22219;SDS011;11279;48.364;10.904;2022-11-18T05:53:08;2.30;;;0.90;;
22219;SDS011;11279;48.364;10.904;2022-11-18T05:54:12;2.63;;;0.97;;
22219;SDS011;11279;48.364;10.904;2022-11-18T05:55:14;0.60;;;0.60;;
22219;SDS011;11279;48.364;10.904;2022-11-18T05:57:38;1.92;;;0.85;;
22219;SDS011;11279;48.364;10.904;2022-11-18T05:58:39;1.40;;;0.77;;
22219;SDS011;11279;48.364;10.904;2022-11-18T05:59:39;1.80;;;0.70;;
22219;SDS011;11279;48.364;10.904;2022-11-18T06:00:40;1.13;;;1.00;;
22219;SDS011;11279;48.364;10.904;2022-11-18T06:01:59;1.20;;;1.10;;
22219;SDS011;11279;48.364;10.904;2022-11-18T06:03:01;3.10;;;1.23;;
22219;SDS011;11279;48.364;10.904;2022-11-18T06:04:11;0.85;;;0.85;;
22219;SDS011;11279;48.364;10.904;2022-11-18T06:05:14;1.30;;;0.88;;
22219;SDS011;11279;48.364;10.904;2022-11-18T06:06:15;1.03;;;1.00;;
22219;SDS011;11279;48.364;10.904;2022-11-18T06:07:21;1.80;;;1.23;;
22219;SDS011;11279;48.364;10.904;2022-11-18T06:08:24;1.40;;;1.30;;
22219;SDS011;11279;48.364;10.904;2022-11-18T06:09:29;1.70;;;1.00;;
22219;SDS011;11279;48.364;10.904;2022-11-18T06:10:32;0.90;;;0.90;;
22219;SDS011;11279;48.364;10.904;2022-11-18T06:11:36;1.20;;;1.10;;
22219;SDS011;11279;48.364;10.904;2022-11-18T06:12:43;1.10;;;0.98;;
22219;SDS011;11279;48.364;10.904;2022-11-18T06:13:47;1.67;;;1.00;;
22219;SDS011;11279;48.364;10.904;2022-11-18T06:14:52;1.65;;;1.30;;
22219;SDS011;11279;48.364;10.904;2022-11-18T06:15:58;1.95;;;1.08;;
22219;SDS011;11279;48.364;10.904;2022-11-18T06:16:59;1.37;;;1.27;;
22219;SDS011;11279;48.364;10.904;2022-11-18T06:18:03;1.00;;;0.80;;
22219;SDS011;11279;48.364;10.904;2022-11-18T06:19:25;1.23;;;0.90;;
22219;SDS011;11279;48.364;10.904;2022-11-18T06:20:26;1.50;;;1.00;;
22219;SDS011;11279;48.364;10.904;2022-11-18T06:21:26;1.10;;;1.00;;
22219;SDS011;11279;48.364;10.904;2022-11-18T06:22:27;1.47;;;0.90;;
22219;SDS011;11279;48.364;10.904;2022-11-18T06:23:28;3.27;;;1.57;;
22219;SDS011;11279;48.364;10.904;2022-11-18T06:24:30;1.92;;;1.40;;
22219;SDS011;11279;48.364;10.904;2022-11-18T06:25:31;2.03;;;1.20;;
22219;SDS011;11279;48.364;10.904;2022-11-18T06:26:32;1.70;;;1.20;;
22219;SDS011;11279;48.364;10.904;2022-11-18T06:27:32;2.10;;;1.27;;
22219;SDS011;11279;48.364;10.904;2022-11-18T06:28:33;2.50;;;1.30;;
22219;SDS011;11279;48.364;10.904;2022-11-18T06:29:34;1.83;;;1.13;;
22219;SDS011;11279;48.364;10.904;2022-11-18T06:30:35;1.57;;;1.07;;
22219;SDS011;11279;48.364;10.904;2022-11-18T06:31:35;1.70;;;1.10;;
22219;SDS011;11279;48.364;10.904;2022-11-18T06:32:36;2.40;;;1.40;;
22219;SDS011;11279;48.364;10.904;2022-11-18T06:33:36;1.67;;;1.10;;
22219;SDS011;11279;48.364;10.904;2022-11-18T06:34:36;1.30;;;1.20;;
22219;SDS011;11279;48.364;10.904;2022-11-18T06:35:37;2.33;;;1.50;;
22219;SDS011;11279;48.364;10.904;2022-11-18T06:36:37;1.73;;;1.33;;
22219;SDS011;11279;48.364;10.904;2022-11-18T06:37:38;2.00;;;1.30;;
22219;SDS011;11279;48.364;10.904;2022-11-18T06:38:38;1.83;;;1.10;;
22219;SDS011;11279;48.364;10.904;2022-11-18T06:39:39;2.10;;;1.30;;
22219;SDS011;11279;48.364;10.904;2022-11-18T06:40:39;1.90;;;1.23;;